Time;durP1;ratioP1;P1;durP2;ratioP2;P2;SDS_P1;SDS_P2;PMS_P1;PMS_P2;Temp;Humidity;BMP_temperature;BMP_pressure;BME280_temperature;BME280_humidity;BME280_pressure;Samples;Min_cycle;Max_cycle;Signal;HPM_P1;HPM_P2
2023/10/15 00:01:44;;;;;;;15.50;2.05;;;;;;;9.34;100.00;101790.97;5005312;28;20113;-63
2023/10/15 00:04:09;;;;;;;9.38;1.70;;;;;;;9.44;100.00;101802.22;5007024;28;20077;-64
2023/10/15 00:06:34;;;;;;;7.88;1.80;;;;;;;9.46;100.00;101801.31;5006614;28;20034;-63
2023/10/15 00:09:00;;;;;;;11.52;1.30;;;;;;;9.40;100.00;101806.69;5006250;28;20030;-63
2023/10/15 00:11:25;;;;;;;8.23;1.52;;;;;;;9.33;100.00;101805.88;5006416;28;20034;-63
2023/10/15 00:13:50;;;;;;;8.70;2.15;;;;;;;9.19;100.00;101802.56;5007206;28;20030;-63
2023/10/15 00:16:19;;;;;;;5.18;1.83;;;;;;;9.15;100.00;101796.44;5007263;28;20022;-63
2023/10/15 00:18:45;;;;;;;11.23;1.15;;;;;;;9.14;100.00;101797.34;5010826;28;20037;-64
2023/10/15 00:21:13;;;;;;;7.47;1.80;;;;;;;9.12;100.00;101796.50;5027701;28;20227;-62
2023/10/15 00:23:43;;;;;;;6.53;1.48;;;;;;;9.10;100.00;101799.13;5030113;28;20167;-65
2023/10/15 00:26:12;;;;;;;8.70;1.25;;;;;;;9.15;100.00;101785.09;5031068;28;20116;-63
2023/10/15 00:28:38;;;;;;;7.03;1.48;;;;;;;9.18;100.00;101777.16;5030466;28;20092;-63
2023/10/15 00:31:09;;;;;;;7.93;1.35;;;;;;;9.26;100.00;101762.13;5030019;28;20151;-63
2023/10/15 00:33:35;;;;;;;7.97;1.38;;;;;;;9.19;100.00;101776.25;5020171;28;20026;-64
2023/10/15 00:36:00;;;;;;;8.20;1.60;;;;;;;9.23;100.00;101788.47;5011201;28;20468;-64
2023/10/15 00:38:25;;;;;;;9.60;1.95;;;;;;;9.20;100.00;101781.50;5010762;28;20105;-63
2023/10/15 00:41:00;;;;;;;7.13;1.17;;;;;;;9.26;100.00;101777.03;5010857;28;20138;-64
2023/10/15 00:43:26;;;;;;;5.28;1.10;;;;;;;9.29;100.00;101783.13;5010612;28;20033;-63
2023/10/15 00:45:52;;;;;;;8.82;1.48;;;;;;;9.31;100.00;101784.00;5010444;28;20038;-63
2023/10/15 00:48:24;;;;;;;5.47;1.02;;;;;;;9.23;100.00;101785.84;5011340;28;20085;-63
2023/10/15 00:50:51;;;;;;;10.35;1.83;;;;;;;9.32;100.00;101806.78;5009517;28;20365;-62
2023/10/15 00:53:23;;;;;;;11.70;2.58;;;;;;;9.07;100.00;101808.84;5012400;28;20026;-64
2023/10/15 00:55:53;;;;;;;12.15;1.63;;;;;;;9.06;100.00;101818.47;5011180;28;20026;-62
2023/10/15 00:58:31;;;;;;;7.63;1.83;;;;;;;9.00;100.00;101823.78;5011253;28;20701;-62
2023/10/15 01:01:00;;;;;;;12.02;1.63;;;;;;;9.00;100.00;101829.06;5009284;28;20034;-61
2023/10/15 01:03:30;;;;;;;;;;;;;;;9.10;100.00;101837.72;5011723;28;20112;-62
2023/10/15 01:06:04;;;;;;;8.25;1.40;;;;;;;9.04;100.00;101815.00;5011012;28;19914;-59
2023/10/15 01:08:38;;;;;;;12.32;1.70;;;;;;;8.73;100.00;101807.44;5011215;28;20029;-62
2023/10/15 01:11:08;;;;;;;7.50;1.77;;;;;;;8.77;100.00;101813.53;5010439;28;20053;-62
2023/10/15 01:13:34;;;;;;;6.63;1.52;;;;;;;8.76;100.00;101802.16;5010754;28;20054;-63
2023/10/15 01:16:03;;;;;;;11.27;1.45;;;;;;;8.75;100.00;101792.53;5010673;28;20148;-63
2023/10/15 01:18:29;;;;;;;5.70;1.40;;;;;;;8.64;100.00;101792.66;5013405;28;20392;-61
2023/10/15 01:20:54;;;;;;;9.25;1.50;;;;;;;8.65;100.00;101793.53;5029055;28;20028;-62
2023/10/15 01:23:31;;;;;;;7.00;1.25;;;;;;;8.51;100.00;101783.13;5030043;28;20091;-62
2023/10/15 01:25:59;;;;;;;8.85;1.58;;;;;;;8.65;100.00;101817.16;5029534;28;20040;-63
2023/10/15 01:28:35;;;;;;;7.32;1.42;;;;;;;8.72;100.00;101808.34;5029145;28;20056;-61
2023/10/15 01:31:02;;;;;;;7.47;1.35;;;;;;;8.68;100.00;101830.28;5029238;28;20029;-64
2023/10/15 01:33:29;;;;;;;4.20;1.55;;;;;;;8.70;100.00;101846.91;5029179;28;20456;-64
2023/10/15 01:35:57;;;;;;;8.88;1.40;;;;;;;8.70;100.00;101825.91;5028747;28;20487;-62
2023/10/15 01:38:27;;;;;;;7.45;1.80;;;;;;;8.53;100.00;101808.50;5029608;28;20032;-61
2023/10/15 01:40:56;;;;;;;8.88;2.22;;;;;;;8.52;100.00;101793.59;5011996;28;20029;-61
2023/10/15 01:43:22;;;;;;;10.43;1.35;;;;;;;8.62;100.00;101788.31;5029445;28;20029;-62
2023/10/15 01:45:49;;;;;;;3.03;1.23;;;;;;;8.62;100.00;101783.94;5028978;28;20021;-62
2023/10/15 01:48:30;;;;;;;7.82;1.23;;;;;;;8.46;100.00;101776.16;5009790;28;20112;-62
2023/10/15 01:51:05;;;;;;;4.20;1.02;;;;;;;8.33;100.00;101788.53;5009935;28;20022;-60
2023/10/15 01:53:34;;;;;;;6.63;1.50;;;;;;;8.32;100.00;101791.19;5009962;28;20041;-62
2023/10/15 01:56:02;;;;;;;5.38;1.23;;;;;;;8.29;100.00;101794.72;5010828;28;20057;-63
2023/10/15 01:58:31;;;;;;;10.27;1.20;;;;;;;8.18;100.00;101791.28;5009664;28;20499;-62
2023/10/15 02:01:09;;;;;;;7.28;1.58;;;;;;;8.15;100.00;101791.31;5008942;28;20802;-64
2023/10/15 02:03:34;;;;;;;9.55;1.40;;;;;;;8.08;100.00;101796.66;5026875;28;20036;-62
2023/10/15 02:06:05;;;;;;;7.43;1.33;;;;;;;8.02;100.00;101793.19;5028176;28;20104;-60
2023/10/15 02:08:31;;;;;;;7.80;1.15;;;;;;;7.97;100.00;101790.59;5029508;28;20067;-62
2023/10/15 02:10:56;;;;;;;8.77;1.08;;;;;;;7.98;100.00;101794.97;5028805;28;20065;-62
2023/10/15 02:13:21;;;;;;;2.63;1.33;;;;;;;7.92;100.00;101785.38;5028871;28;20033;-62
2023/10/15 02:15:49;;;;;;;9.52;1.30;;;;;;;7.89;100.00;101776.66;5010327;28;20448;-62
2023/10/15 02:18:17;;;;;;;4.68;0.95;;;;;;;7.84;100.00;101764.47;5029095;28;20045;-62
2023/10/15 02:23:12;;;;;;;5.90;1.15;;;;;;;7.91;100.00;101793.25;5029627;28;20065;-63
2023/10/15 02:25:46;;;;;;;3.30;1.00;;;;;;;7.94;100.00;101798.47;5028968;28;20475;-63
2023/10/15 02:28:23;;;;;;;8.77;1.33;;;;;;;7.78;100.00;101843.22;5026519;28;20022;-61
2023/10/15 02:30:49;;;;;;;5.22;1.20;;;;;;;7.80;100.00;101862.41;5007073;28;20081;-62
2023/10/15 02:33:17;;;;;;;5.97;1.25;;;;;;;7.92;100.00;101879.00;5008461;28;20061;-63
2023/10/15 02:35:47;;;;;;;5.68;1.23;;;;;;;8.05;100.00;101864.91;5009043;28;20022;-61
2023/10/15 02:38:13;;;;;;;4.05;1.00;;;;;;;8.01;100.00;101867.56;5007956;28;20040;-62
2023/10/15 02:41:25;;;;;;;5.93;1.00;;;;;;;8.01;100.00;101846.56;5006890;28;20080;-62
2023/10/15 02:43:25;;;;;;;4.68;1.00;;;;;;;7.99;100.00;101787.94;5001879;28;20408;-61
2023/10/15 02:45:51;;;;;;;7.18;1.45;;;;;;;7.93;100.00;101786.25;5007696;28;20025;-61
2023/10/15 02:48:19;;;;;;;6.75;1.30;;;;;;;7.99;100.00;101790.56;5025262;28;20376;-62
2023/10/15 02:51:01;;;;;;;3.10;1.45;;;;;;;8.04;100.00;101794.91;5027476;28;20071;-61
2023/10/15 02:53:32;;;;;;;1.88;0.73;;;;;;;8.16;100.00;101803.59;5027911;28;20496;-62
2023/10/15 02:55:58;;;;;;;4.55;0.90;;;;;;;8.20;100.00;101814.03;5028853;28;20040;-64
2023/10/15 02:58:28;;;;;;;0.80;0.63;;;;;;;8.30;100.00;101809.56;5024834;28;20886;-61
2023/10/15 03:00:59;;;;;;;3.47;0.73;;;;;;;8.38;100.00;101811.25;5006584;28;20036;-63
2023/10/15 03:03:32;;;;;;;4.43;1.45;;;;;;;8.47;100.00;101824.31;5007559;28;20530;-62
2023/10/15 03:05:58;;;;;;;0.77;0.73;;;;;;;8.48;100.00;101802.41;5007786;28;20084;-62
2023/10/15 03:08:30;;;;;;;1.05;0.73;;;;;;;8.46;100.00;101805.06;5007756;28;20485;-62
2023/10/15 03:11:01;;;;;;;1.95;0.90;;;;;;;8.49;100.00;101796.25;5007630;28;20136;-63
2023/10/15 03:13:26;;;;;;;1.48;0.80;;;;;;;8.53;100.00;101798.00;5007989;28;20037;-63
2023/10/15 03:15:52;;;;;;;2.95;0.73;;;;;;;8.53;100.00;101808.50;5007675;28;20034;-61
2023/10/15 03:18:28;;;;;;;2.40;0.80;;;;;;;8.59;100.00;101797.97;5006978;28;20026;-62
2023/10/15 03:21:38;;;;;;;1.75;0.70;;;;;;;8.56;100.00;101803.25;5007451;28;20050;-62
2023/10/15 03:23:43;;;;;;;1.35;0.70;;;;;;;8.58;100.00;101805.88;5002267;28;20042;-61
2023/10/15 03:26:17;;;;;;;5.70;0.90;;;;;;;8.62;100.00;101817.19;5007996;28;20030;-62
2023/10/15 03:28:44;;;;;;;3.92;0.85;;;;;;;8.68;100.00;101822.41;5005755;28;20061;-62
2023/10/15 03:31:14;;;;;;;2.58;0.90;;;;;;;8.68;100.00;101818.03;5006957;28;20541;-61
2023/10/15 03:33:39;;;;;;;4.45;0.75;;;;;;;8.67;100.00;101832.03;5007100;28;20588;-63
2023/10/15 03:36:12;;;;;;;4.13;1.02;;;;;;;8.68;100.00;101846.03;5007545;28;20030;-62
2023/10/15 03:38:37;;;;;;;4.68;0.80;;;;;;;8.59;100.00;101850.50;5007359;28;20387;-62
2023/10/15 03:41:21;;;;;;;3.00;0.90;;;;;;;8.39;100.00;101857.63;5007352;28;20022;-61
2023/10/15 03:43:46;;;;;;;2.78;0.73;;;;;;;8.30;100.00;101848.97;5007316;28;20033;-62
2023/10/15 03:46:24;;;;;;;1.55;0.80;;;;;;;8.30;100.00;101841.09;5005854;28;20029;-61
2023/10/15 03:48:50;;;;;;;3.47;0.90;;;;;;;8.30;100.00;101827.06;5007225;28;20110;-64
2023/10/15 03:51:19;;;;;;;4.00;0.68;;;;;;;8.30;100.00;101829.69;5006916;28;20116;-64
2023/10/15 03:53:49;;;;;;;3.20;0.85;;;;;;;8.19;100.00;101827.19;5006855;28;20049;-62
2023/10/15 03:56:18;;;;;;;4.50;0.80;;;;;;;8.15;100.00;101817.56;5005901;28;20380;-61
2023/10/15 03:58:43;;;;;;;2.50;0.70;;;;;;;7.94;100.00;101809.84;5006728;28;20025;-64
2023/10/15 04:01:17;;;;;;;2.92;1.10;;;;;;;7.88;100.00;101820.41;5006285;28;20030;-60
2023/10/15 04:03:48;;;;;;;1.98;0.85;;;;;;;7.66;100.00;101810.06;5007016;28;20025;-62
2023/10/15 04:06:18;;;;;;;2.65;1.05;;;;;;;7.54;100.00;101816.25;5007297;28;20060;-63
2023/10/15 04:09:08;;;;;;;0.85;0.63;;;;;;;7.45;100.00;101816.28;5007019;28;20034;-63
2023/10/15 04:11:42;;;;;;;1.23;0.80;;;;;;;7.33;100.00;101817.22;5007498;28;20045;-63
2023/10/15 04:17:06;;;;;;;2.03;0.80;;;;;;;7.15;100.00;101823.41;4981986;28;20038;-63
2023/10/15 04:19:31;;;;;;;2.90;0.95;;;;;;;7.14;100.00;101822.53;5008386;28;20029;-63
2023/10/15 04:22:00;;;;;;;4.25;1.55;;;;;;;7.19;100.00;101822.50;5024126;28;20110;-63
2023/10/15 04:24:36;;;;;;;1.95;0.88;;;;;;;7.25;100.00;101821.63;5025089;28;20044;-62
2023/10/15 04:27:03;;;;;;;4.60;1.20;;;;;;;7.31;100.00;101830.31;5026650;28;20134;-63
2023/10/15 04:29:30;;;;;;;5.15;1.08;;;;;;;7.38;100.00;101825.06;5026858;28;20446;-65
2023/10/15 04:32:00;;;;;;;4.88;1.10;;;;;;;7.43;100.00;101818.03;5026490;28;20029;-62
2023/10/15 04:34:28;;;;;;;2.60;1.00;;;;;;;7.44;100.00;101819.78;5027379;28;20025;-64
2023/10/15 04:36:57;;;;;;;5.97;1.02;;;;;;;7.50;100.00;101817.13;5009868;28;20479;-63
2023/10/15 04:39:22;;;;;;;3.08;1.00;;;;;;;7.54;100.00;101816.25;5007098;28;20248;-64
2023/10/15 04:41:49;;;;;;;7.85;1.10;;;;;;;7.57;100.00;101821.47;5006244;28;20123;-63
2023/10/15 04:44:31;;;;;;;2.60;0.80;;;;;;;7.58;100.00;101815.34;5006840;28;20026;-61
2023/10/15 04:47:04;;;;;;;3.75;0.95;;;;;;;7.63;100.00;101819.69;5007006;28;20029;-63
2023/10/15 04:49:32;;;;;;;4.72;1.05;;;;;;;7.66;100.00;101827.53;5007461;28;20038;-64
2023/10/15 04:51:58;;;;;;;1.27;0.80;;;;;;;7.62;100.00;101866.03;5007752;28;20030;-64
2023/10/15 04:54:24;;;;;;;5.30;1.50;;;;;;;7.66;100.00;101883.50;5006564;28;20484;-62
2023/10/15 04:56:50;;;;;;;6.43;1.42;;;;;;;7.75;100.00;101860.72;5020632;28;20395;-62
2023/10/15 04:59:15;;;;;;;8.85;2.10;;;;;;;7.84;100.00;101865.91;5023990;28;20059;-63
2023/10/15 05:01:42;;;;;;;9.38;1.60;;;;;;;8.01;100.00;101857.91;5023275;28;20026;-62
2023/10/15 05:04:09;;;;;;;11.13;1.95;;;;;;;8.08;100.00;101854.41;5026768;28;20017;-63
2023/10/15 05:06:35;;;;;;;11.70;1.58;;;;;;;8.16;100.00;101843.81;5026186;28;20033;-61
2023/10/15 05:09:00;;;;;;;11.05;1.83;;;;;;;8.26;100.00;101844.63;5030224;28;20652;-64
2023/10/15 05:11:27;;;;;;;11.18;1.67;;;;;;;8.22;100.00;101856.03;5030030;28;20136;-62
2023/10/15 05:13:53;;;;;;;7.10;1.50;;;;;;;8.31;100.00;101839.34;5030002;28;20075;-63
2023/10/15 05:16:19;;;;;;;6.57;1.27;;;;;;;8.36;100.00;101857.69;5028197;28;20356;-64
2023/10/15 05:18:47;;;;;;;4.35;1.75;;;;;;;8.40;100.00;101854.16;5027747;28;20925;-62
2023/10/15 05:21:13;;;;;;;8.55;1.02;;;;;;;8.44;100.00;101858.50;5012214;28;20022;-63
2023/10/15 05:23:38;;;;;;;4.40;1.10;;;;;;;8.52;100.00;101846.16;5009794;28;20495;-64
2023/10/15 05:26:04;;;;;;;8.30;1.13;;;;;;;8.53;100.00;101839.16;5011607;28;20529;-64
2023/10/15 05:28:29;;;;;;;4.40;0.80;;;;;;;8.48;100.00;101836.56;5021493;28;20026;-64
2023/10/15 05:30:57;;;;;;;5.80;1.00;;;;;;;8.41;100.00;101846.25;5015047;28;20030;-62
2023/10/15 05:33:23;;;;;;;2.03;0.93;;;;;;;8.36;100.00;101839.31;5007033;28;20427;-61
2023/10/15 05:35:49;;;;;;;9.77;1.27;;;;;;;8.33;100.00;101835.81;5006616;28;20022;-65
2023/10/15 05:38:16;;;;;;;4.07;1.30;;;;;;;8.29;100.00;101846.34;5007610;28;20335;-66
2023/10/15 05:40:42;;;;;;;4.75;0.98;;;;;;;8.27;100.00;101838.50;5007430;28;20053;-67
2023/10/15 05:43:07;;;;;;;2.38;0.88;;;;;;;8.18;100.00;101838.56;5008231;28;20041;-65
2023/10/15 05:45:33;;;;;;;6.72;0.90;;;;;;;8.20;100.00;101847.31;5007145;28;20421;-64
2023/10/15 05:47:58;;;;;;;3.60;0.77;;;;;;;8.20;100.00;101863.06;5008213;28;20536;-63
2023/10/15 05:50:23;;;;;;;11.10;1.17;;;;;;;8.23;100.00;101868.28;5007160;28;20072;-64
2023/10/15 05:52:49;;;;;;;2.17;0.80;;;;;;;8.19;100.00;101869.19;5008480;28;20030;-63
2023/10/15 05:55:16;;;;;;;4.07;0.82;;;;;;;8.21;100.00;101872.66;5008875;28;20108;-62
2023/10/15 05:57:42;;;;;;;2.65;0.73;;;;;;;8.19;100.00;101879.69;5008231;28;20041;-61
2023/10/15 06:00:26;;;;;;;2.38;1.30;;;;;;;8.06;100.00;101887.66;5008308;28;20034;-62
2023/10/15 06:02:51;;;;;;;7.40;1.27;;;;;;;7.99;100.00;101904.31;5008776;28;20152;-63
2023/10/15 06:05:16;;;;;;;3.63;0.95;;;;;;;7.97;100.00;101917.44;5009816;28;20053;-62
2023/10/15 06:07:42;;;;;;;5.53;0.80;;;;;;;7.94;100.00;101919.22;5018939;28;20625;-62
2023/10/15 06:10:09;;;;;;;6.57;1.33;;;;;;;7.95;100.00;101916.56;5018259;28;20018;-65
2023/10/15 06:12:35;;;;;;;3.85;0.93;;;;;;;8.04;100.00;101915.66;5003544;28;20018;-64
2023/10/15 06:15:00;;;;;;;3.03;0.95;;;;;;;8.03;100.00;101926.16;5005957;28;20022;-65
2023/10/15 06:17:25;;;;;;;3.28;0.75;;;;;;;7.93;100.00;101920.09;5007438;28;20144;-62
2023/10/15 06:19:51;;;;;;;4.78;0.95;;;;;;;8.07;100.00;101910.38;5005492;28;20087;-65
2023/10/15 06:22:16;;;;;;;3.50;1.00;;;;;;;8.08;100.00;101901.66;5007476;28;20025;-65
2023/10/15 06:24:46;;;;;;;3.53;0.82;;;;;;;8.20;100.00;101897.19;5006464;28;20080;-68
2023/10/15 06:27:12;;;;;;;4.88;1.20;;;;;;;8.22;100.00;101896.28;5006629;28;20033;-62
2023/10/15 06:29:37;;;;;;;2.90;0.85;;;;;;;8.28;100.00;101912.91;5007510;28;20067;-62
2023/10/15 06:32:02;;;;;;;4.57;1.40;;;;;;;8.25;100.00;101924.25;5008007;28;20057;-61
2023/10/15 06:34:28;;;;;;;6.80;1.10;;;;;;;8.34;100.00;101924.22;5008195;28;20222;-63
2023/10/15 06:36:53;;;;;;;3.83;0.98;;;;;;;8.41;100.00;101930.31;5006306;28;20067;-63
2023/10/15 06:39:18;;;;;;;4.57;1.02;;;;;;;8.34;100.00;101913.72;5014262;28;20491;-64
2023/10/15 06:41:44;;;;;;;6.60;1.02;;;;;;;8.34;100.00;101923.38;5026092;28;20478;-62
2023/10/15 06:44:10;;;;;;;4.68;0.70;;;;;;;8.16;100.00;101914.69;5025655;28;20073;-64
2023/10/15 06:46:38;;;;;;;3.15;0.90;;;;;;;8.20;100.00;101915.56;5026665;28;20025;-63
2023/10/15 06:49:04;;;;;;;7.03;1.60;;;;;;;8.17;100.00;101924.34;5025544;28;20025;-63
2023/10/15 06:51:29;;;;;;;4.38;1.00;;;;;;;8.21;100.00;101917.31;5028028;28;20029;-62
2023/10/15 06:53:55;;;;;;;5.55;1.17;;;;;;;8.12;100.00;101928.72;5027031;28;20101;-63
2023/10/15 06:56:20;;;;;;;4.53;1.40;;;;;;;8.17;100.00;101929.59;5025539;28;20128;-60
2023/10/15 06:58:46;;;;;;;6.18;1.10;;;;;;;8.34;100.00;101926.00;5009376;28;20080;-61
2023/10/15 07:01:11;;;;;;;6.82;1.67;;;;;;;8.48;100.00;101928.50;5026239;28;20124;-64
2023/10/15 07:03:36;;;;;;;4.07;1.92;;;;;;;8.62;100.00;101923.19;5025482;28;20372;-64
2023/10/15 07:06:02;;;;;;;6.80;1.30;;;;;;;8.75;100.00;101917.78;5026829;28;20017;-64
2023/10/15 07:08:27;;;;;;;9.68;1.70;;;;;;;8.96;100.00;101916.72;5026903;28;20087;-63
2023/10/15 07:10:53;;;;;;;5.03;1.45;;;;;;;9.20;100.00;101930.50;5026876;28;20045;-62
2023/10/15 07:13:18;;;;;;;6.85;1.30;;;;;;;9.54;100.00;101951.19;5027055;28;20547;-62
2023/10/15 07:15:45;;;;;;;7.45;1.23;;;;;;;9.50;100.00;101965.28;5025837;28;20049;-64
2023/10/15 07:18:11;;;;;;;7.20;1.42;;;;;;;9.33;100.00;101968.09;5010145;28;20377;-64
2023/10/15 07:20:36;;;;;;;10.57;1.98;;;;;;;9.15;100.00;101970.00;5006524;28;20250;-60
2023/10/15 07:23:02;;;;;;;13.57;2.42;;;;;;;9.06;100.00;101976.22;5005952;28;20022;-60
2023/10/15 07:25:27;;;;;;;8.80;1.70;;;;;;;8.93;100.00;101979.84;5006784;28;20109;-61
2023/10/15 07:27:55;;;;;;;12.50;1.70;;;;;;;8.89;100.00;101991.28;5005934;28;20034;-64
2023/10/15 07:30:21;;;;;;;8.10;1.92;;;;;;;9.00;100.00;102002.56;5006734;28;20022;-62
2023/10/15 07:32:47;;;;;;;7.35;1.40;;;;;;;8.96;100.00;102011.38;5007238;28;20025;-61
2023/10/15 07:35:14;;;;;;;14.38;1.63;;;;;;;9.02;100.00;102023.59;5008288;28;20080;-64
2023/10/15 07:37:44;;;;;;;16.08;2.03;;;;;;;9.07;100.00;102017.44;5006525;28;20400;-65
2023/10/15 07:40:16;;;;;;;8.88;1.45;;;;;;;9.08;100.00;102034.06;5005811;28;20030;-63
2023/10/15 07:42:46;;;;;;;5.82;1.65;;;;;;;9.22;100.00;102033.94;5006733;28;20041;-61
2023/10/15 07:45:12;;;;;;;7.22;0.90;;;;;;;9.17;100.00;102041.88;5006257;28;20076;-59
2023/10/15 07:47:38;;;;;;;6.75;1.63;;;;;;;9.12;100.00;102045.44;4993069;28;20484;-66
2023/10/15 07:50:18;;;;;;;4.60;1.38;;;;;;;9.18;100.00;102030.47;4986630;28;20033;-61
2023/10/15 07:52:44;;;;;;;4.97;1.10;;;;;;;9.10;100.00;102037.56;4985385;28;20026;-62
2023/10/15 07:55:10;;;;;;;7.63;1.10;;;;;;;9.06;100.00;102026.19;4986174;28;20058;-62
2023/10/15 07:57:37;;;;;;;8.20;1.20;;;;;;;9.19;100.00;102028.72;5006441;28;20057;-60
2023/10/15 08:00:06;;;;;;;5.60;1.45;;;;;;;9.26;100.00;102034.78;5005227;28;20032;-61
2023/10/15 08:02:32;;;;;;;7.45;1.70;;;;;;;9.28;100.00;102044.41;5025176;28;20033;-59
2023/10/15 08:04:57;;;;;;;5.22;1.10;;;;;;;9.26;100.00;102042.66;5026348;28;20297;-61
2023/10/15 08:07:23;;;;;;;7.93;1.55;;;;;;;9.19;100.00;102048.00;5025954;28;20053;-62
2023/10/15 08:09:52;;;;;;;10.88;1.30;;;;;;;9.20;100.00;102047.09;5026065;28;20018;-62
2023/10/15 08:12:17;;;;;;;8.88;1.17;;;;;;;9.21;100.00;102050.59;5025642;28;20049;-63
2023/10/15 08:14:44;;;;;;;10.13;1.75;;;;;;;9.26;100.00;102051.44;5025219;28;20021;-61
2023/10/15 08:17:11;;;;;;;7.50;1.33;;;;;;;9.31;100.00;102043.50;5026344;28;20098;-63
2023/10/15 08:19:37;;;;;;;8.18;1.70;;;;;;;9.37;100.00;102048.72;5024019;28;20313;-64
2023/10/15 08:22:02;;;;;;;6.45;1.48;;;;;;;9.65;100.00;102048.44;5025453;28;20064;-62
2023/10/15 08:24:28;;;;;;;17.08;1.90;;;;;;;9.76;100.00;102050.06;5025717;28;20032;-63
2023/10/15 08:26:54;;;;;;;11.02;4.07;;;;;;;9.82;100.00;102050.88;5025723;28;20029;-61
2023/10/15 08:29:19;;;;;;;9.57;2.10;;;;;;;9.99;100.00;102055.94;5024183;28;20124;-62
2023/10/15 08:31:48;;;;;;;5.32;1.70;;;;;;;9.99;100.00;102068.25;5025623;28;20025;-63
2023/10/15 08:34:13;;;;;;;10.05;1.70;;;;;;;9.94;100.00;102072.69;5010998;28;20030;-60
2023/10/15 08:36:39;;;;;;;6.35;1.15;;;;;;;9.96;100.00;102063.00;5005645;28;20461;-63
2023/10/15 08:39:06;;;;;;;7.10;2.03;;;;;;;10.02;100.00;102067.34;5006134;28;20476;-63
2023/10/15 08:41:38;;;;;;;7.20;1.27;;;;;;;10.05;100.00;102073.44;5016015;28;20120;-63
2023/10/15 08:44:06;;;;;;;4.65;1.10;;;;;;;10.07;100.00;102066.41;5028813;28;20044;-62
2023/10/15 08:46:31;;;;;;;7.90;1.73;;;;;;;10.14;100.00;102066.34;5028991;28;20412;-61
2023/10/15 08:48:58;;;;;;;8.05;2.10;;;;;;;10.14;100.00;102066.34;5027828;28;20028;-63
2023/10/15 08:51:23;;;;;;;15.50;2.33;;;;;;;10.17;100.00;102071.56;5028065;28;20029;-61
2023/10/15 08:53:49;;;;;;;5.65;1.95;;;;;;;10.36;100.00;102078.31;5028156;28;20068;-62
2023/10/15 08:56:20;;;;;;;5.05;1.27;;;;;;;10.54;100.00;102100.06;5029541;28;20032;-60
2023/10/15 08:58:46;;;;;;;7.28;1.27;;;;;;;10.68;100.00;102109.56;5022765;28;20104;-63
2023/10/15 09:01:13;;;;;;;5.47;1.27;;;;;;;10.87;100.00;102131.28;5007496;28;20047;-63
2023/10/15 09:03:39;;;;;;;7.93;1.30;;;;;;;10.28;100.00;102132.88;5008689;28;20488;-64
2023/10/15 09:06:05;;;;;;;3.55;0.88;;;;;;;9.97;100.00;102138.50;5009795;28;20072;-63
2023/10/15 09:08:30;;;;;;;6.07;1.08;;;;;;;10.04;100.00;102149.81;4997370;28;20481;-63
2023/10/15 09:10:56;;;;;;;4.45;0.85;;;;;;;9.65;100.00;102147.56;4989591;28;20061;-65
2023/10/15 09:13:22;;;;;;;4.20;1.27;;;;;;;9.43;100.00;102137.22;4989480;28;20024;-63
2023/10/15 09:15:52;;;;;;;8.65;1.38;;;;;;;9.28;100.00;102136.47;4988767;28;20249;-62
2023/10/15 09:18:17;;;;;;;3.47;1.00;;;;;;;9.39;100.00;102125.84;4989849;28;20018;-63
2023/10/15 09:20:44;;;;;;;5.60;1.10;;;;;;;9.23;100.00;102135.63;4989466;28;20495;-63
2023/10/15 09:23:09;;;;;;;7.15;1.40;;;;;;;9.34;100.00;102131.13;4989646;28;20022;-62
2023/10/15 09:25:35;;;;;;;9.32;1.50;;;;;;;9.46;100.00;102131.94;4993295;28;20137;-63
2023/10/15 09:28:01;;;;;;;7.45;1.70;;;;;;;9.46;100.00;102138.06;5028175;28;20530;-62
2023/10/15 09:30:28;;;;;;;4.78;1.10;;;;;;;9.66;100.00;102134.38;5014769;28;20030;-63
2023/10/15 09:32:54;;;;;;;3.65;1.08;;;;;;;9.96;100.00;102153.41;5014549;28;20026;-62
2023/10/15 09:35:21;;;;;;;4.80;1.05;;;;;;;9.84;100.00;102149.13;5007755;28;20457;-63
2023/10/15 09:37:46;;;;;;;5.40;1.10;;;;;;;9.82;100.00;102155.31;5005759;28;20048;-63
2023/10/15 09:40:23;;;;;;;4.72;0.95;;;;;;;9.88;100.00;102160.53;5009373;28;20026;-64
2023/10/15 09:42:53;;;;;;;9.23;1.13;;;;;;;9.77;100.00;102168.50;5019096;28;20033;-60
2023/10/15 09:45:18;;;;;;;4.88;1.27;;;;;;;9.80;100.00;102171.13;5027494;28;20032;-61
2023/10/15 09:47:52;;;;;;;3.50;1.10;;;;;;;9.81;100.00;102170.22;5027477;28;20037;-63
2023/10/15 09:50:25;;;;;;;5.63;1.30;;;;;;;9.93;100.00;102168.38;5017919;28;20037;-62
2023/10/15 09:52:56;;;;;;;5.68;1.40;;;;;;;9.92;100.00;102174.50;5020320;28;20034;-61
2023/10/15 09:55:32;;;;;;;5.15;1.08;;;;;;;9.88;100.00;102178.97;5029779;28;20379;-63
2023/10/15 09:58:01;;;;;;;5.20;1.02;;;;;;;9.79;100.00;102177.28;5030049;28;20072;-63
2023/10/15 10:01:17;;;;;;;;;;;;;;;9.91;100.00;102183.31;5029146;28;20025;-62
2023/10/15 10:03:17;;;;;;;6.07;1.35;;;;;;;10.31;100.00;102179.38;5024433;28;20005;-64
2023/10/15 10:05:57;;;;;;;7.82;1.10;;;;;;;10.43;100.00;102179.25;5029486;28;20419;-62
2023/10/15 10:08:27;;;;;;;;;;;;;;;10.65;100.00;102183.44;5029693;28;20499;-62
2023/10/15 10:11:02;;;;;;;3.88;0.90;;;;;;;11.03;100.00;102189.94;5026893;28;19925;-67
2023/10/15 10:13:57;;;;;;;7.22;1.25;;;;;;;11.11;100.00;102198.63;5007833;28;20026;-65
2023/10/15 10:16:24;;;;;;;2.75;0.90;;;;;;;10.96;100.00;102201.47;5007308;28;20062;-64
2023/10/15 10:18:49;;;;;;;5.60;1.25;;;;;;;10.93;100.00;102199.75;5004697;28;20398;-65
2023/10/15 10:21:19;;;;;;;6.10;1.48;;;;;;;11.07;100.00;102209.22;5007527;28;20048;-66
2023/10/15 10:23:46;;;;;;;5.53;1.27;;;;;;;11.15;100.00;102199.44;5012660;28;20024;-64
2023/10/15 10:26:13;;;;;;;5.15;1.20;;;;;;;11.20;100.00;102202.03;5015162;28;20306;-64
2023/10/15 10:28:39;;;;;;;5.70;1.20;;;;;;;11.40;100.00;102190.28;5004522;28;20026;-63
2023/10/15 10:31:07;;;;;;;5.65;1.50;;;;;;;11.81;100.00;102183.47;5007682;28;20026;-65
2023/10/15 10:33:44;;;;;;;7.50;1.35;;;;;;;12.29;100.00;102181.75;5007644;28;20468;-60
2023/10/15 10:36:13;;;;;;;3.80;1.23;;;;;;;12.12;100.00;102198.78;5007941;28;20072;-64
2023/10/15 10:38:39;;;;;;;4.82;1.10;;;;;;;11.88;100.00;102205.34;5007192;28;20456;-61
2023/10/15 10:41:07;;;;;;;5.90;1.35;;;;;;;11.37;100.00;102210.56;5006246;28;20037;-63
2023/10/15 10:43:33;;;;;;;6.95;1.33;;;;;;;11.02;100.00;102227.78;5004775;28;20026;-63
2023/10/15 10:46:02;;;;;;;5.25;1.70;;;;;;;10.57;100.00;102226.53;5006704;28;20491;-64
2023/10/15 10:48:29;;;;;;;5.70;1.40;;;;;;;10.53;100.00;102219.56;5007039;28;20030;-62
2023/10/15 10:51:23;;;;;;;8.82;1.65;;;;;;;10.71;100.00;102225.50;5006811;28;20120;-65
2023/10/15 10:53:58;;;;;;;4.68;1.38;;;;;;;10.71;100.00;102220.25;5001019;28;20034;-68
2023/10/15 10:56:25;;;;;;;7.75;1.30;;;;;;;10.88;100.00;102227.94;5004984;28;20034;-63
2023/10/15 10:58:57;;;;;;;6.78;1.30;;;;;;;11.00;100.00;102226.91;5005528;28;20055;-62
2023/10/15 11:01:23;;;;;;;5.93;2.35;;;;;;;11.01;100.00;102220.75;5005960;28;20427;-61
2023/10/15 11:03:48;;;;;;;6.35;1.25;;;;;;;10.93;100.00;102219.97;5005676;28;20018;-63
2023/10/15 11:06:15;;;;;;;8.63;1.63;;;;;;;11.29;100.00;102222.97;5005686;28;20383;-58
2023/10/15 11:08:41;;;;;;;4.05;1.58;;;;;;;11.49;100.00;102224.44;5005998;28;20053;-59
2023/10/15 11:11:09;;;;;;;5.22;1.38;;;;;;;11.63;100.00;102221.59;5013161;28;20065;-60
2023/10/15 11:13:34;;;;;;;7.25;1.50;;;;;;;12.06;100.00;102227.91;5007642;28;20036;-63
2023/10/15 11:15:59;;;;;;;6.57;1.52;;;;;;;12.48;99.89;102221.00;5007121;28;20026;-61
2023/10/15 11:18:26;;;;;;;2.90;1.10;;;;;;;12.73;91.87;102223.16;5006543;28;20092;-59
2023/10/15 11:20:52;;;;;;;5.82;1.20;;;;;;;12.76;82.95;102223.97;5006531;28;20036;-59
2023/10/15 11:23:18;;;;;;;2.72;1.00;;;;;;;12.96;78.70;102221.78;4989233;28;20027;-60
2023/10/15 11:25:43;;;;;;;5.78;1.20;;;;;;;13.02;73.48;102232.25;4992274;28;20049;-64
2023/10/15 11:28:11;;;;;;;5.50;1.13;;;;;;;13.16;71.78;102229.31;4993511;28;20022;-60
2023/10/15 11:30:42;;;;;;;5.40;1.00;;;;;;;13.28;74.03;102222.88;4987074;28;20026;-62
2023/10/15 11:33:09;;;;;;;8.18;1.40;;;;;;;13.49;68.29;102223.25;4985817;28;20512;-61
2023/10/15 11:35:34;;;;;;;8.80;1.50;;;;;;;13.76;66.42;102229.66;4997680;28;20062;-61